createdAt,value
2023-01-19T00:00:44.027Z,99466.28
2023-01-19T00:03:15.802Z,99478.19
2023-01-19T00:05:43.749Z,99473.00
2023-01-19T00:08:17.432Z,99483.03
2023-01-19T00:10:46.880Z,99478.16
2023-01-19T00:13:14.010Z,99481.31
2023-01-19T00:15:40.735Z,99480.50
2023-01-19T00:18:09.032Z,99481.72
2023-01-19T00:20:36.248Z,99487.44
2023-01-19T00:23:04.637Z,99485.41
2023-01-19T00:25:31.164Z,99493.94
2023-01-19T00:27:59.268Z,99500.31
2023-01-19T00:30:26.975Z,99501.50
2023-01-19T00:32:53.488Z,99500.13
2023-01-19T00:35:19.925Z,99500.13
2023-01-19T00:37:46.362Z,99506.00
2023-01-19T00:40:13.990Z,99506.00
2023-01-19T00:42:40.465Z,99515.72
2023-01-19T00:45:25.049Z,99513.06
2023-01-19T00:47:57.097Z,99523.28
2023-01-19T00:50:25.230Z,99514.50
2023-01-19T00:52:53.693Z,99521.31
2023-01-19T00:55:20.842Z,99516.84
2023-01-19T00:57:47.485Z,99516.66
2023-01-19T01:00:19.330Z,99512.16
2023-01-19T01:02:46.121Z,99518.63
2023-01-19T01:05:13.111Z,99522.34
2023-01-19T01:07:41.723Z,99524.22
2023-01-19T01:10:13.866Z,99516.44
2023-01-19T01:12:41.141Z,99525.22
2023-01-19T01:15:22.174Z,99534.00
2023-01-19T01:17:48.602Z,99527.88
2023-01-19T01:20:18.227Z,99534.25
2023-01-19T01:22:50.262Z,99533.19
2023-01-19T01:25:18.383Z,99538.81
2023-01-19T01:27:44.767Z,99543.09
2023-01-19T01:30:14.468Z,99539.97
2023-01-19T01:32:41.290Z,99542.06
2023-01-19T01:35:09.085Z,99533.00
2023-01-19T01:37:37.089Z,99533.41
2023-01-19T01:40:05.841Z,99534.56
2023-01-19T01:42:33.633Z,99526.44
2023-01-19T01:45:06.050Z,99525.72
2023-01-19T01:47:44.342Z,99537.75
2023-01-19T01:50:17.813Z,99539.38
2023-01-19T01:53:07.260Z,99539.38
2023-01-19T01:55:39.792Z,99532.84
2023-01-19T01:58:09.799Z,99538.84
2023-01-19T02:00:56.594Z,99542.69
2023-01-19T02:03:25.473Z,99537.75
2023-01-19T02:05:57.363Z,99536.28
2023-01-19T02:08:53.062Z,99540.28
2023-01-19T02:11:38.294Z,99542.72
2023-01-19T02:14:05.718Z,99539.72
2023-01-19T02:16:32.610Z,99548.84
2023-01-19T02:19:01.047Z,99545.16
2023-01-19T02:21:42.920Z,99548.53
2023-01-19T02:24:09.778Z,99554.91
2023-01-19T02:26:42.572Z,99552.59
2023-01-19T02:29:12.184Z,99552.84
2023-01-19T02:31:40.199Z,99552.16
2023-01-19T02:34:11.846Z,99550.69
2023-01-19T02:36:54.527Z,99549.88
2023-01-19T02:39:27.285Z,99549.53
2023-01-19T02:42:00.519Z,99543.78
2023-01-19T02:44:29.114Z,99531.88
2023-01-19T02:46:56.237Z,99538.50
2023-01-19T02:49:23.698Z,99531.56
2023-01-19T02:51:50.275Z,99535.13
2023-01-19T02:54:38.259Z,99532.94
2023-01-19T02:57:39.970Z,99526.25
2023-01-19T03:00:17.326Z,99522.31
2023-01-19T03:03:24.562Z,99519.97
2023-01-19T03:05:57.175Z,99526.78
2023-01-19T03:08:32.962Z,99524.94
2023-01-19T03:11:02.488Z,99524.00
2023-01-19T03:13:34.768Z,99524.63
2023-01-19T03:16:21.880Z,99535.03
2023-01-19T03:19:17.143Z,99533.94
2023-01-19T03:21:52.030Z,99541.41
2023-01-19T03:24:21.490Z,99538.22
2023-01-19T03:26:52.147Z,99530.97
2023-01-19T03:29:20.878Z,99538.00
2023-01-19T03:31:51.807Z,99533.19
2023-01-19T03:34:21.946Z,99540.09
2023-01-19T03:37:02.649Z,99549.13
2023-01-19T03:39:29.347Z,99548.19
2023-01-19T03:42:02.990Z,99555.13
2023-01-19T03:44:32.239Z,99544.34
2023-01-19T03:46:59.778Z,99551.19
2023-01-19T03:49:27.002Z,99559.38
2023-01-19T03:51:56.968Z,99547.72
2023-01-19T03:54:23.443Z,99547.28
2023-01-19T03:56:52.650Z,99547.38
2023-01-19T03:59:19.987Z,99551.88
2023-01-19T04:01:46.687Z,99554.09
2023-01-19T04:04:13.527Z,99552.34
2023-01-19T04:06:39.935Z,99547.50
2023-01-19T04:09:06.443Z,99558.72
2023-01-19T04:11:32.834Z,99552.34
2023-01-19T04:13:59.367Z,99554.66
2023-01-19T04:16:25.922Z,99554.09
2023-01-19T04:18:52.637Z,99550.97
2023-01-19T04:21:20.268Z,99561.13
2023-01-19T04:23:47.033Z,99565.63
2023-01-19T04:26:13.497Z,99568.63
2023-01-19T04:28:39.931Z,99573.56
2023-01-19T04:31:08.039Z,99578.34
2023-01-19T04:33:34.901Z,99579.94
2023-01-19T04:36:02.168Z,99582.13
2023-01-19T04:41:02.975Z,99574.41
2023-01-19T04:43:29.549Z,99581.69
2023-01-19T04:45:56.218Z,99580.72
2023-01-19T04:48:22.874Z,99583.28
2023-01-19T04:50:51.531Z,99590.66
2023-01-19T04:53:18.494Z,99574.06
2023-01-19T04:55:44.937Z,99575.69
2023-01-19T04:58:11.376Z,99573.56
2023-01-19T05:00:38.016Z,99574.06
2023-01-19T05:03:05.193Z,99572.66
2023-01-19T05:05:33.167Z,99581.53
2023-01-19T05:07:59.900Z,99582.91
2023-01-19T05:10:26.436Z,99586.16
2023-01-19T05:12:52.935Z,99588.44
2023-01-19T05:15:19.397Z,99581.13
2023-01-19T05:17:46.688Z,99569.59
2023-01-19T05:20:16.028Z,99571.22
2023-01-19T05:23:38.569Z,99583.38
2023-01-19T05:26:05.192Z,99592.16
2023-01-19T05:28:32.831Z,99587.06
2023-01-19T05:30:59.517Z,99595.63
2023-01-19T05:33:26.275Z,99601.59
2023-01-19T05:35:53.825Z,99602.41
2023-01-19T05:38:34.232Z,99592.31
2023-01-19T05:41:01.611Z,99591.09
2023-01-19T05:43:28.038Z,99591.84
2023-01-19T05:45:54.539Z,99590.19
2023-01-19T05:48:21.033Z,99593.44
2023-01-19T05:50:49.441Z,99591.00
2023-01-19T05:53:17.172Z,99588.34
2023-01-19T05:55:43.594Z,99582.66
2023-01-19T05:58:10.038Z,99585.78
2023-01-19T06:00:36.534Z,99586.72
2023-01-19T06:03:03.786Z,99590.06
2023-01-19T06:05:30.675Z,99586.00
2023-01-19T06:07:57.170Z,99594.34
2023-01-19T06:10:24.002Z,99602.41
2023-01-19T06:12:52.424Z,99593.16
2023-01-19T06:15:19.140Z,99588.78
2023-01-19T06:17:45.661Z,99583.22
2023-01-19T06:20:14.020Z,99581.13
2023-01-19T06:22:40.472Z,99596.50
2023-01-19T06:25:07.257Z,99599.19
2023-01-19T06:27:33.630Z,99599.09
2023-01-19T06:30:00.053Z,99604.41
2023-01-19T06:32:26.497Z,99596.81
2023-01-19T06:34:54.087Z,99596.22
2023-01-19T06:37:20.694Z,99595.41
2023-01-19T06:39:47.221Z,99589.19
2023-01-19T06:42:13.589Z,99590.47
2023-01-19T06:44:47.150Z,99604.56
2023-01-19T06:47:16.335Z,99600.16
2023-01-19T06:49:43.375Z,99605.25
2023-01-19T06:52:11.416Z,99601.28
2023-01-19T06:54:37.912Z,99608.59
2023-01-19T06:57:04.521Z,99600.41
2023-01-19T06:59:31.721Z,99607.34
2023-01-19T07:01:59.049Z,99599.38
2023-01-19T07:04:26.950Z,99598.56
2023-01-19T07:06:55.674Z,99600.63
2023-01-19T07:09:24.660Z,99608.84
2023-01-19T07:11:51.104Z,99611.38
2023-01-19T07:14:17.897Z,99615.19
2023-01-19T07:16:44.302Z,99619.31
2023-01-19T07:19:10.768Z,99620.47
2023-01-19T07:21:37.500Z,99627.84
2023-01-19T07:24:03.961Z,99633.28
2023-01-19T07:26:30.869Z,99639.78
2023-01-19T07:28:57.483Z,99637.03
2023-01-19T07:31:24.176Z,99639.91
2023-01-19T07:33:50.709Z,99642.56
2023-01-19T07:36:17.232Z,99645.38
2023-01-19T07:38:43.917Z,99647.53
2023-01-19T07:41:10.991Z,99647.78
2023-01-19T07:43:37.607Z,99647.22
2023-01-19T07:46:05.740Z,99642.47
2023-01-19T07:48:32.319Z,99646.63
2023-01-19T07:51:10.446Z,99646.59
2023-01-19T07:53:39.699Z,99652.59
2023-01-19T07:56:07.618Z,99664.53
2023-01-19T07:58:34.031Z,99652.06
2023-01-19T08:01:00.589Z,99661.88
2023-01-19T08:03:27.122Z,99655.13
2023-01-19T08:05:53.743Z,99648.31
2023-01-19T08:08:20.538Z,99654.53
2023-01-19T08:10:50.175Z,99654.50
2023-01-19T08:13:16.651Z,99659.19
2023-01-19T08:15:43.074Z,99660.53
2023-01-19T08:18:11.551Z,99655.09
2023-01-19T08:20:37.989Z,99668.44
2023-01-19T08:23:05.415Z,99663.94
2023-01-19T08:25:32.943Z,99658.41
2023-01-19T08:28:00.354Z,99665.53
2023-01-19T08:30:27.107Z,99665.69
2023-01-19T08:32:58.092Z,99670.53
2023-01-19T08:35:24.852Z,99669.50
2023-01-19T08:37:51.256Z,99670.13
2023-01-19T08:40:18.328Z,99668.25
2023-01-19T08:42:45.264Z,99672.75
2023-01-19T08:45:12.047Z,99666.72
2023-01-19T08:47:38.602Z,99666.81
2023-01-19T08:50:05.438Z,99679.69
2023-01-19T08:52:31.856Z,99673.41
2023-01-19T08:54:58.273Z,99679.78
2023-01-19T08:57:24.687Z,99679.75
2023-01-19T08:59:51.313Z,99676.88
2023-01-19T09:02:17.713Z,99680.22
2023-01-19T09:04:44.226Z,99681.41
2023-01-19T09:07:10.737Z,99680.66
2023-01-19T09:09:39.490Z,99685.38
2023-01-19T09:12:05.939Z,99683.94
2023-01-19T09:14:32.474Z,99690.41
2023-01-19T09:16:59.284Z,99688.59
2023-01-19T09:19:26.162Z,99686.50
2023-01-19T09:21:54.735Z,99688.88
2023-01-19T09:24:21.250Z,99692.78
2023-01-19T09:26:47.895Z,99692.28
2023-01-19T09:29:14.331Z,99688.94
2023-01-19T09:31:41.009Z,99697.97
2023-01-19T09:34:07.515Z,99690.50
2023-01-19T09:36:34.964Z,99691.31
2023-01-19T09:39:01.493Z,99692.69
2023-01-19T09:41:29.081Z,99693.28
2023-01-19T09:43:59.443Z,99695.19
2023-01-19T09:46:38.640Z,99688.75
2023-01-19T09:49:13.331Z,99687.41
2023-01-19T09:51:43.736Z,99687.41
2023-01-19T09:54:22.973Z,99693.34
2023-01-19T09:56:52.738Z,99679.91
2023-01-19T09:59:25.152Z,99664.50
2023-01-19T10:02:25.485Z,99670.00
2023-01-19T10:05:29.601Z,99668.94
2023-01-19T10:08:02.324Z,99668.06
2023-01-19T10:10:31.978Z,99662.16
2023-01-19T10:13:04.447Z,99653.66
2023-01-19T10:15:59.014Z,99660.09
2023-01-19T10:18:48.395Z,99653.28
2023-01-19T10:21:20.320Z,99656.63
2023-01-19T10:23:58.750Z,99661.91
2023-01-19T10:26:33.323Z,99658.06
2023-01-19T10:29:38.516Z,99653.81
2023-01-19T10:32:09.932Z,99653.28
2023-01-19T10:34:36.698Z,99652.88
2023-01-19T10:37:15.708Z,99654.44
2023-01-19T10:39:42.732Z,99645.97
2023-01-19T10:42:13.271Z,99651.34
2023-01-19T10:44:39.892Z,99656.94
2023-01-19T10:47:16.635Z,99657.19
2023-01-19T10:49:43.941Z,99643.84
2023-01-19T10:52:19.500Z,99653.06
2023-01-19T10:54:48.430Z,99652.44
2023-01-19T10:57:26.318Z,99654.75
2023-01-19T10:59:52.750Z,99656.19
2023-01-19T11:02:19.335Z,99667.69
2023-01-19T11:04:50.196Z,99666.56
2023-01-19T11:07:24.393Z,99673.81
2023-01-19T11:10:17.241Z,99677.09
2023-01-19T11:12:47.815Z,99673.34
2023-01-19T11:15:16.835Z,99671.75
2023-01-19T11:17:48.050Z,99666.13
2023-01-19T11:20:23.863Z,99663.66
2023-01-19T11:23:24.271Z,99663.38
2023-01-19T11:25:52.242Z,99657.72
2023-01-19T11:28:32.897Z,99663.13
2023-01-19T11:31:16.784Z,99662.34
2023-01-19T11:33:55.582Z,99658.66
2023-01-19T11:36:25.968Z,99650.16
2023-01-19T11:39:01.562Z,99649.66
2023-01-19T11:41:35.449Z,99644.53
2023-01-19T11:44:24.399Z,99650.16
2023-01-19T11:46:56.382Z,99639.03
2023-01-19T11:49:40.998Z,99641.91
2023-01-19T11:52:44.082Z,99642.78
2023-01-19T11:55:34.169Z,99633.97
2023-01-19T11:58:02.770Z,99636.06
2023-01-19T12:00:41.018Z,99635.47
2023-01-19T12:03:30.599Z,99634.41
2023-01-19T12:06:04.275Z,99632.03
2023-01-19T12:08:36.116Z,99621.78
2023-01-19T12:11:04.671Z,99620.19
2023-01-19T12:13:33.253Z,99620.44
2023-01-19T12:16:04.578Z,99628.72
2023-01-19T12:18:37.363Z,99618.22
2023-01-19T12:21:04.289Z,99609.84
2023-01-19T12:23:31.058Z,99612.56
2023-01-19T12:26:16.215Z,99611.50
2023-01-19T12:28:47.117Z,99623.06
2023-01-19T12:31:22.263Z,99615.84
2023-01-19T12:33:49.216Z,99613.22
2023-01-19T12:36:27.747Z,99609.94
2023-01-19T12:38:55.772Z,99612.84
2023-01-19T12:41:23.685Z,99624.13
2023-01-19T12:44:10.768Z,99617.09
2023-01-19T12:46:41.140Z,99632.69
2023-01-19T12:49:22.065Z,99625.44
2023-01-19T12:51:51.955Z,99631.94
2023-01-19T12:54:31.572Z,99635.09
2023-01-19T12:57:46.165Z,99647.13
2023-01-19T13:00:24.435Z,99650.91
2023-01-19T13:02:58.509Z,99648.81
2023-01-19T13:05:32.676Z,99652.41
2023-01-19T13:08:08.429Z,99649.78
2023-01-19T13:10:56.199Z,99645.53
2023-01-19T13:13:23.476Z,99646.06
2023-01-19T13:15:50.950Z,99642.06
2023-01-19T13:18:22.905Z,99640.47
2023-01-19T13:21:09.271Z,99653.59
2023-01-19T13:23:47.647Z,99648.25
2023-01-19T13:26:16.653Z,99650.13
2023-01-19T13:28:49.975Z,99652.28
2023-01-19T13:31:17.716Z,99646.63
2023-01-19T13:33:55.922Z,99650.34
2023-01-19T13:36:22.344Z,99644.72
2023-01-19T13:38:51.309Z,99641.75
2023-01-19T13:41:21.878Z,99646.06
2023-01-19T13:43:54.297Z,99647.94
2023-01-19T13:46:20.979Z,99646.06
2023-01-19T13:49:01.087Z,99660.81
2023-01-19T13:51:27.492Z,99659.47
2023-01-19T13:53:58.750Z,99658.91
2023-01-19T13:56:29.807Z,99661.09
2023-01-19T13:59:07.081Z,99659.22
2023-01-19T14:01:33.826Z,99655.72
2023-01-19T14:04:00.572Z,99659.22
2023-01-19T14:06:39.528Z,99657.03
2023-01-19T14:09:16.770Z,99662.69
2023-01-19T14:12:07.514Z,99668.06
2023-01-19T14:14:34.160Z,99664.56
2023-01-19T14:17:00.660Z,99664.03
2023-01-19T14:19:27.178Z,99657.31
2023-01-19T14:22:02.641Z,99664.84
2023-01-19T14:24:31.955Z,99667.50
2023-01-19T14:27:24.720Z,99670.47
2023-01-19T14:29:53.730Z,99673.66
2023-01-19T14:32:24.640Z,99670.16
2023-01-19T14:35:12.371Z,99666.94
2023-01-19T14:37:47.306Z,99665.63
2023-01-19T14:40:18.857Z,99670.44
2023-01-19T14:43:11.417Z,99680.59
2023-01-19T14:45:42.888Z,99682.22
2023-01-19T14:48:18.204Z,99681.97
2023-01-19T14:50:57.622Z,99681.16
2023-01-19T14:53:30.156Z,99680.09
2023-01-19T14:56:03.135Z,99685.97
2023-01-19T14:58:32.148Z,99686.50
2023-01-19T15:00:58.962Z,99683.00
2023-01-19T15:03:42.656Z,99682.72
2023-01-19T15:06:15.224Z,99688.38
2023-01-19T15:08:42.156Z,99688.88
2023-01-19T15:11:12.026Z,99689.94
2023-01-19T15:13:39.290Z,99683.53
2023-01-19T15:16:08.715Z,99688.06
2023-01-19T15:18:35.688Z,99691.56
2023-01-19T15:21:03.097Z,99697.72
2023-01-19T15:23:30.713Z,99707.94
2023-01-19T15:25:59.969Z,99702.88
2023-01-19T15:28:26.864Z,99706.34
2023-01-19T15:30:57.617Z,99707.72
2023-01-19T15:33:26.977Z,99710.66
2023-01-19T15:35:53.676Z,99716.28
2023-01-19T15:38:20.072Z,99720.03
2023-01-19T15:40:51.190Z,99719.25
2023-01-19T15:43:18.505Z,99718.44
2023-01-19T15:46:00.782Z,99721.94
2023-01-19T15:48:27.269Z,99721.94
2023-01-19T15:50:53.663Z,99726.47
2023-01-19T15:53:21.458Z,99726.72
2023-01-19T15:55:52.545Z,99726.44
2023-01-19T15:58:20.640Z,99727.50
2023-01-19T16:00:54.877Z,99735.56
2023-01-19T16:03:21.448Z,99731.53
2023-01-19T16:05:47.840Z,99738.22
2023-01-19T16:08:14.496Z,99743.31
2023-01-19T16:10:42.124Z,99747.56
2023-01-19T16:13:10.243Z,99743.31
2023-01-19T16:15:37.911Z,99738.75
2023-01-19T16:18:05.345Z,99744.06
2023-01-19T16:20:32.062Z,99747.31
2023-01-19T16:23:06.259Z,99753.47
2023-01-19T16:25:40.511Z,99753.19
2023-01-19T16:28:08.130Z,99751.56
2023-01-19T16:30:34.542Z,99749.94
2023-01-19T16:33:01.043Z,99752.88
2023-01-19T16:35:27.471Z,99760.66
2023-01-19T16:37:53.837Z,99756.06
2023-01-19T16:40:20.405Z,99761.97
2023-01-19T16:42:47.307Z,99760.66
2023-01-19T16:45:13.874Z,99765.72
2023-01-19T16:47:40.430Z,99766.03
2023-01-19T16:50:10.059Z,99763.09
2023-01-19T16:52:36.620Z,99772.53
2023-01-19T16:55:07.021Z,99774.16
2023-01-19T16:57:33.454Z,99773.09
2023-01-19T16:59:59.857Z,99770.66
2023-01-19T17:02:26.300Z,99776.31
2023-01-19T17:04:52.720Z,99778.22
2023-01-19T17:07:19.487Z,99781.44
2023-01-19T17:09:45.928Z,99782.22
2023-01-19T17:12:12.617Z,99772.88
2023-01-19T17:14:39.725Z,99776.88
2023-01-19T17:17:09.343Z,99772.28
2023-01-19T17:19:35.884Z,99782.19
2023-01-19T17:22:02.321Z,99781.63
2023-01-19T17:24:28.855Z,99787.56
2023-01-19T17:26:55.289Z,99787.81
2023-01-19T17:29:21.846Z,99795.31
2023-01-19T17:31:51.231Z,99802.03
2023-01-19T17:34:17.674Z,99800.66
2023-01-19T17:36:44.483Z,99804.91
2023-01-19T17:39:14.756Z,99799.81
2023-01-19T17:41:41.463Z,99801.69
2023-01-19T17:44:07.991Z,99806.28
2023-01-19T17:46:36.374Z,99808.72
2023-01-19T17:49:05.468Z,99807.63
2023-01-19T17:51:32.099Z,99807.13
2023-01-19T17:53:59.283Z,99811.94
2023-01-19T17:56:29.575Z,99814.88
2023-01-19T17:58:57.783Z,99813.00
2023-01-19T18:01:26.474Z,99821.03
2023-01-19T18:03:53.654Z,99817.56
2023-01-19T18:06:21.365Z,99825.34
2023-01-19T18:08:48.550Z,99823.47
2023-01-19T18:11:17.845Z,99821.31
2023-01-19T18:13:44.899Z,99822.91
2023-01-19T18:16:17.751Z,99825.09
2023-01-19T18:18:44.273Z,99824.03
2023-01-19T18:21:13.032Z,99836.88
2023-01-19T18:23:43.284Z,99833.66
2023-01-19T18:26:12.577Z,99835.25
2023-01-19T18:28:39.093Z,99832.56
2023-01-19T18:31:11.232Z,99844.34
2023-01-19T18:33:38.687Z,99840.38
2023-01-19T18:36:05.625Z,99839.50
2023-01-19T18:38:32.101Z,99843.00
2023-01-19T18:41:13.246Z,99838.94
2023-01-19T18:43:39.950Z,99842.19
2023-01-19T18:46:06.903Z,99835.19
2023-01-19T18:48:33.637Z,99837.59
2023-01-19T18:51:04.790Z,99839.47
2023-01-19T18:53:31.866Z,99848.06
2023-01-19T18:56:01.814Z,99838.16
2023-01-19T18:58:29.605Z,99844.34
2023-01-19T19:00:56.752Z,99850.53
2023-01-19T19:03:23.373Z,99858.56
2023-01-19T19:05:50.089Z,99854.47
2023-01-19T19:08:16.893Z,99856.09
2023-01-19T19:10:44.142Z,99859.56
2023-01-19T19:13:16.114Z,99852.63
2023-01-19T19:15:45.847Z,99857.97
2023-01-19T19:18:13.755Z,99848.59
2023-01-19T19:20:42.128Z,99854.72
2023-01-19T19:23:09.657Z,99861.69
2023-01-19T19:25:36.216Z,99863.25
2023-01-19T19:28:02.616Z,99867.63
2023-01-19T19:30:29.162Z,99861.44
2023-01-19T19:32:56.509Z,99876.75
2023-01-19T19:35:24.139Z,99867.13
2023-01-19T19:37:51.618Z,99862.53
2023-01-19T19:40:18.133Z,99868.94
2023-01-19T19:42:44.630Z,99875.41
2023-01-19T19:45:12.010Z,99874.88
2023-01-19T19:47:38.448Z,99875.16
2023-01-19T19:50:05.127Z,99868.19
2023-01-19T19:52:32.054Z,99877.28
2023-01-19T19:54:58.632Z,99873.56
2023-01-19T19:57:25.311Z,99882.66
2023-01-19T19:59:51.753Z,99885.59
2023-01-19T20:02:18.150Z,99886.44
2023-01-19T20:04:45.009Z,99889.88
2023-01-19T20:07:11.579Z,99894.47
2023-01-19T20:09:38.075Z,99898.72
2023-01-19T20:12:04.745Z,99902.53
2023-01-19T20:14:31.210Z,99898.78
2023-01-19T20:16:57.689Z,99905.47
2023-01-19T20:19:24.255Z,99912.13
2023-01-19T20:21:50.793Z,99918.81
2023-01-19T20:24:19.945Z,99925.84
2023-01-19T20:26:52.567Z,99922.59
2023-01-19T20:29:20.249Z,99917.19
2023-01-19T20:31:52.557Z,99924.72
2023-01-19T20:34:22.645Z,99927.47
2023-01-19T20:36:50.329Z,99932.53
2023-01-19T20:39:18.466Z,99932.59
2023-01-19T20:41:45.586Z,99938.75
2023-01-19T20:44:14.275Z,99939.25
2023-01-19T20:46:41.128Z,99949.41
2023-01-19T20:49:07.734Z,99956.44
2023-01-19T20:51:35.485Z,99950.28
2023-01-19T20:54:02.059Z,99959.94
2023-01-19T20:56:28.502Z,99962.31
2023-01-19T20:58:54.923Z,99958.31
2023-01-19T21:01:24.291Z,99959.13
2023-01-19T21:03:51.976Z,99969.84
2023-01-19T21:06:20.080Z,99970.84
2023-01-19T21:08:49.606Z,99965.50
2023-01-19T21:11:19.787Z,99970.09
2023-01-19T21:13:48.276Z,99973.28
2023-01-19T21:16:15.628Z,99981.38
2023-01-19T21:18:42.350Z,99980.03
2023-01-19T21:21:17.820Z,99979.72
2023-01-19T21:23:59.906Z,99991.50
2023-01-19T21:26:26.790Z,99985.56
2023-01-19T21:28:53.364Z,99991.19
2023-01-19T21:31:22.622Z,99992.88
2023-01-19T21:33:53.351Z,99991.81
2023-01-19T21:36:22.944Z,99996.34
2023-01-19T21:38:51.378Z,100000.66
2023-01-19T21:41:18.555Z,99993.94
2023-01-19T21:43:44.976Z,100000.66
2023-01-19T21:46:21.668Z,100001.22
2023-01-19T21:48:48.680Z,100004.41
2023-01-19T21:51:15.646Z,100008.13
2023-01-19T21:53:42.202Z,100005.97
2023-01-19T21:56:11.401Z,100011.06
2023-01-19T21:58:38.173Z,100010.50
2023-01-19T22:01:10.743Z,100016.50
2023-01-19T22:03:37.490Z,100017.25
2023-01-19T22:06:06.221Z,100017.56
2023-01-19T22:08:33.165Z,100025.03
2023-01-19T22:11:07.465Z,100025.34
2023-01-19T22:13:35.257Z,100031.94
2023-01-19T22:16:03.615Z,100031.94
2023-01-19T22:18:30.155Z,100042.13
2023-01-19T22:20:56.718Z,100035.19
2023-01-19T22:23:23.205Z,100041.63
2023-01-19T22:25:49.575Z,100039.75
2023-01-19T22:28:16.089Z,100043.78
2023-01-19T22:30:43.990Z,100039.50
2023-01-19T22:33:10.792Z,100044.59
2023-01-19T22:35:37.647Z,100049.16
2023-01-19T22:38:04.562Z,100051.53
2023-01-19T22:40:32.197Z,100048.28
2023-01-19T22:43:00.631Z,100050.47
2023-01-19T22:45:27.017Z,100046.97
2023-01-19T22:47:53.457Z,100052.91
2023-01-19T22:50:19.893Z,100051.53
2023-01-19T22:52:46.316Z,100045.91
2023-01-19T22:55:13.214Z,100042.69
2023-01-19T22:57:39.984Z,100040.00
2023-01-19T23:00:08.671Z,100049.66
2023-01-19T23:02:35.170Z,100047.03
2023-01-19T23:05:01.586Z,100044.91
2023-01-19T23:07:28.028Z,100044.09
2023-01-19T23:09:54.407Z,100050.00
2023-01-19T23:12:20.815Z,100045.41
2023-01-19T23:14:47.259Z,100046.78
2023-01-19T23:17:13.728Z,100062.88
2023-01-19T23:19:40.099Z,100055.91
2023-01-19T23:22:06.540Z,100061.25
2023-01-19T23:24:32.931Z,100065.00
2023-01-19T23:27:01.433Z,100072.78
2023-01-19T23:29:27.862Z,100066.66
2023-01-19T23:31:55.897Z,100071.25
2023-01-19T23:34:22.541Z,100075.56
2023-01-19T23:36:48.954Z,100083.03
2023-01-19T23:39:22.320Z,100079.25
2023-01-19T23:41:49.390Z,100079.72
2023-01-19T23:44:17.003Z,100084.75
2023-01-19T23:46:43.947Z,100083.13
2023-01-19T23:49:10.454Z,100081.22
2023-01-19T23:51:36.914Z,100086.63
2023-01-19T23:54:03.412Z,100091.94
2023-01-19T23:56:35.830Z,100086.34
2023-01-19T23:59:05.113Z,100082.03
